Bonesteel, South Dakota
Current Conditions -  °F | °C
As of 7:15 PM on Tuesday 27 Jan 2015 (Local Time) from KONL Reporting Station
Clear Clear  
Wind Chill: 43°   Ceiling: Unl
Heat Index: 47°   Visibility: 10mi
Dew Point: 37°   Wind: 8mph
Humidity: 67%   Direction: 130°SE
Pressure: 29.92"   Gusts: NA
Location:  43.08°N, 98.94°W
Report Text: KONL 280115Z AUTO 13007KT 10SM CLR 08/03 A2992 RMK AO2 T00820025
Loading
Personal Weather Stations






























Interactive Weather Map New forecast layout! Learn more

10-Day Weather Forecast

Advertisements
Track Severe Weather on mobile